createdAt,value
2018-05-17T00:01:18.555Z,98332.41
2018-05-17T00:03:47.272Z,98332.54
2018-05-17T00:06:15.412Z,98320.34
2018-05-17T00:08:43.553Z,98322.49
2018-05-17T00:11:11.688Z,98322.09
2018-05-17T00:13:39.819Z,98316.06
2018-05-17T00:16:08.040Z,98316.84
2018-05-17T00:18:36.158Z,98316.06
2018-05-17T00:21:04.295Z,98317.13
2018-05-17T00:23:32.421Z,98321.16
2018-05-17T00:26:00.555Z,98314.44
2018-05-17T00:28:28.675Z,98313.89
2018-05-17T00:30:56.802Z,98304.78
2018-05-17T00:33:24.927Z,98308.11
2018-05-17T00:35:53.045Z,98302.86
2018-05-17T00:38:21.167Z,98310.64
2018-05-17T00:40:49.292Z,98306.22
2018-05-17T00:43:17.407Z,98304.05
2018-05-17T00:45:45.543Z,98301.34
2018-05-17T00:48:13.677Z,98304.44
2018-05-17T00:50:41.787Z,98295.86
2018-05-17T00:53:32.933Z,98295.71
2018-05-17T00:56:01.043Z,98301.46
2018-05-17T00:58:29.163Z,98304.18
2018-05-17T01:00:57.287Z,98299.88
2018-05-17T01:03:25.397Z,98296.54
2018-05-17T01:05:53.524Z,98297.36
2018-05-17T01:08:21.644Z,98301.77
2018-05-17T01:10:49.780Z,98301.52
2018-05-17T01:13:17.886Z,98297.49
2018-05-17T01:15:46.021Z,98305.72
2018-05-17T01:18:14.134Z,98301.55
2018-05-17T01:20:42.256Z,98299.16
2018-05-17T01:23:10.389Z,98304.50
2018-05-17T01:25:38.507Z,98303.19
2018-05-17T01:28:06.631Z,98300.13
2018-05-17T01:30:34.761Z,98300.55
2018-05-17T01:33:02.881Z,98296.24
2018-05-17T01:35:30.992Z,98298.41
2018-05-17T01:38:10.999Z,98299.98
2018-05-17T01:40:39.140Z,98294.22
2018-05-17T01:43:07.285Z,98293.17
2018-05-17T01:45:35.439Z,98290.75
2018-05-17T01:48:03.569Z,98286.21
2018-05-17T01:50:31.696Z,98283.41
2018-05-17T01:52:59.823Z,98279.94
2018-05-17T01:55:27.952Z,98276.71
2018-05-17T01:57:56.105Z,98280.36
2018-05-17T02:00:24.271Z,98279.02
2018-05-17T02:02:52.404Z,98274.14
2018-05-17T02:05:20.529Z,98277.10
2018-05-17T02:07:48.692Z,98271.34
2018-05-17T02:10:16.797Z,98267.34
2018-05-17T02:12:44.916Z,98272.59
2018-05-17T02:15:13.043Z,98271.78
2018-05-17T02:17:41.172Z,98268.45
2018-05-17T02:20:09.290Z,98268.58
2018-05-17T02:22:37.413Z,98270.86
2018-05-17T02:25:05.636Z,98266.31
2018-05-17T02:27:33.778Z,98271.39
2018-05-17T02:30:01.920Z,98268.16
2018-05-17T02:32:33.883Z,98267.33
2018-05-17T02:35:02.008Z,98271.78
2018-05-17T02:37:30.142Z,98272.03
2018-05-17T02:39:58.423Z,98266.53
2018-05-17T02:42:26.442Z,98264.95
2018-05-17T02:44:54.570Z,98269.52
2018-05-17T02:47:22.766Z,98269.78
2018-05-17T02:49:50.830Z,98278.77
2018-05-17T02:52:18.971Z,98269.94
2018-05-17T02:54:47.091Z,98280.05
2018-05-17T02:57:15.235Z,98273.11
2018-05-17T02:59:43.372Z,98275.69
2018-05-17T03:02:11.486Z,98275.02
2018-05-17T03:04:39.634Z,98277.83
2018-05-17T03:07:07.776Z,98274.74
2018-05-17T03:09:35.907Z,98279.33
2018-05-17T03:12:04.044Z,98284.92
2018-05-17T03:14:32.173Z,98282.80
2018-05-17T03:17:00.324Z,98289.21
2018-05-17T03:19:28.440Z,98284.39
2018-05-17T03:21:56.572Z,98292.58
2018-05-17T03:24:24.714Z,98294.16
2018-05-17T03:26:52.876Z,98296.30
2018-05-17T03:29:21.003Z,98283.87
2018-05-17T03:31:49.143Z,98298.44
2018-05-17T03:34:17.267Z,98296.16
2018-05-17T03:36:45.408Z,98297.34
2018-05-17T03:39:13.544Z,98296.94
2018-05-17T03:41:41.669Z,98298.80
2018-05-17T03:44:09.818Z,98303.59
2018-05-17T03:46:37.948Z,98298.92
2018-05-17T03:49:06.155Z,98299.98
2018-05-17T03:51:34.473Z,98297.86
2018-05-17T03:54:02.622Z,98303.45
2018-05-17T03:56:30.746Z,98300.38
2018-05-17T03:58:58.915Z,98304.26
2018-05-17T04:01:38.731Z,98301.70
2018-05-17T04:04:18.707Z,98299.99
2018-05-17T04:06:46.855Z,98306.70
2018-05-17T04:09:15.006Z,98315.42
2018-05-17T04:11:43.127Z,98312.45
2018-05-17T04:14:11.254Z,98307.73
2018-05-17T04:16:39.388Z,98312.95
2018-05-17T04:19:07.529Z,98314.30
2018-05-17T04:21:35.666Z,98314.71
2018-05-17T04:24:03.886Z,98320.09
2018-05-17T04:26:31.957Z,98317.80
2018-05-17T04:29:00.117Z,98313.08
2018-05-17T04:31:28.253Z,98314.94
2018-05-17T04:33:56.402Z,98309.48
2018-05-17T04:36:24.538Z,98315.91
2018-05-17T04:38:52.666Z,98314.05
2018-05-17T04:41:20.828Z,98322.61
2018-05-17T04:43:48.960Z,98319.25
2018-05-17T04:46:17.089Z,98312.27
2018-05-17T04:48:45.207Z,98318.05
2018-05-17T04:51:13.356Z,98320.97
2018-05-17T04:53:41.510Z,98324.86
2018-05-17T04:56:09.636Z,98332.74
2018-05-17T04:58:37.766Z,98331.66
2018-05-17T05:01:05.925Z,98336.22
2018-05-17T05:03:34.059Z,98333.36
2018-05-17T05:06:02.190Z,98333.36
2018-05-17T05:08:30.457Z,98340.20
2018-05-17T05:10:58.583Z,98341.53
2018-05-17T05:13:26.727Z,98329.69
2018-05-17T05:15:54.867Z,98326.80
2018-05-17T05:18:23.005Z,98332.97
2018-05-17T05:20:51.160Z,98335.47
2018-05-17T05:23:19.293Z,98330.98
2018-05-17T05:25:47.424Z,98328.86
2018-05-17T05:28:15.551Z,98329.70
2018-05-17T05:30:43.679Z,98329.83
2018-05-17T05:33:11.816Z,98332.93
2018-05-17T05:35:39.951Z,98332.20
2018-05-17T05:38:08.081Z,98337.70
2018-05-17T05:40:36.218Z,98345.77
2018-05-17T05:43:04.346Z,98347.70
2018-05-17T05:45:32.499Z,98350.95
2018-05-17T05:48:00.621Z,98351.44
2018-05-17T05:50:28.756Z,98351.06
2018-05-17T05:52:56.892Z,98356.56
2018-05-17T05:55:25.052Z,98349.84
2018-05-17T05:57:53.159Z,98350.94
2018-05-17T06:00:22.020Z,98351.98
2018-05-17T06:02:50.136Z,98350.42
2018-05-17T06:05:18.271Z,98349.50
2018-05-17T06:07:46.398Z,98352.19
2018-05-17T06:10:14.542Z,98354.13
2018-05-17T06:12:42.694Z,98355.91
2018-05-17T06:15:10.808Z,98358.00
2018-05-17T06:17:38.951Z,98362.28
2018-05-17T06:20:07.088Z,98361.07
2018-05-17T06:22:35.217Z,98362.70
2018-05-17T06:25:03.363Z,98361.80
2018-05-17T06:27:31.490Z,98362.31
2018-05-17T06:29:59.638Z,98374.67
2018-05-17T06:32:27.772Z,98362.14
2018-05-17T06:34:55.902Z,98362.41
2018-05-17T06:37:24.037Z,98372.20
2018-05-17T06:39:52.172Z,98363.65
2018-05-17T06:42:20.724Z,98367.66
2018-05-17T06:44:48.857Z,98365.23
2018-05-17T06:47:16.987Z,98366.87
2018-05-17T06:49:45.118Z,98365.50
2018-05-17T06:52:13.267Z,98367.50
2018-05-17T06:54:41.430Z,98360.78
2018-05-17T06:57:10.340Z,98359.50
2018-05-17T06:59:38.470Z,98372.08
2018-05-17T07:02:06.600Z,98369.80
2018-05-17T07:04:34.743Z,98375.00
2018-05-17T07:07:02.866Z,98377.04
2018-05-17T07:09:31.005Z,98368.37
2018-05-17T07:11:59.138Z,98376.78
2018-05-17T07:14:27.274Z,98375.70
2018-05-17T07:16:55.407Z,98373.69
2018-05-17T07:19:23.543Z,98372.30
2018-05-17T07:21:51.677Z,98374.34
2018-05-17T07:24:19.799Z,98373.18
2018-05-17T07:26:47.943Z,98367.95
2018-05-17T07:29:16.073Z,98375.46
2018-05-17T07:31:44.205Z,98378.92
2018-05-17T07:34:12.345Z,98375.77
2018-05-17T07:36:40.488Z,98380.78
2018-05-17T07:39:08.702Z,98384.19
2018-05-17T07:41:36.776Z,98383.77
2018-05-17T07:44:04.919Z,98383.09
2018-05-17T07:46:33.064Z,98387.86
2018-05-17T07:49:01.207Z,98392.64
2018-05-17T07:51:29.341Z,98396.14
2018-05-17T07:53:57.473Z,98400.95
2018-05-17T07:56:25.624Z,98391.38
2018-05-17T07:58:53.741Z,98389.40
2018-05-17T08:01:21.887Z,98400.19
2018-05-17T08:03:50.027Z,98391.50
2018-05-17T08:06:18.182Z,98391.58
2018-05-17T08:08:46.311Z,98396.97
2018-05-17T08:11:14.472Z,98406.79
2018-05-17T08:13:42.577Z,98401.98
2018-05-17T08:16:10.730Z,98401.77
2018-05-17T08:18:38.861Z,98401.52
2018-05-17T08:21:07.008Z,98404.47
2018-05-17T08:23:35.138Z,98404.47
2018-05-17T08:26:03.277Z,98403.27
2018-05-17T08:28:31.407Z,98409.25
2018-05-17T08:30:59.540Z,98412.31
2018-05-17T08:33:27.679Z,98412.61
2018-05-17T08:35:55.826Z,98421.79
2018-05-17T08:38:23.952Z,98407.06
2018-05-17T08:40:52.099Z,98415.59
2018-05-17T08:43:20.248Z,98422.20
2018-05-17T08:45:48.384Z,98427.02
2018-05-17T08:48:16.509Z,98425.39
2018-05-17T08:50:44.652Z,98431.49
2018-05-17T08:53:12.771Z,98429.20
2018-05-17T08:55:40.909Z,98429.78
2018-05-17T08:58:09.028Z,98435.58
2018-05-17T09:00:37.166Z,98438.88
2018-05-17T09:03:05.307Z,98435.71
2018-05-17T09:05:33.446Z,98429.66
2018-05-17T09:08:01.568Z,98433.20
2018-05-17T09:10:29.708Z,98437.08
2018-05-17T09:12:57.836Z,98439.13
2018-05-17T09:15:25.959Z,98441.78
2018-05-17T09:17:54.131Z,98445.22
2018-05-17T09:20:22.277Z,98446.24
2018-05-17T09:22:50.393Z,98445.45
2018-05-17T09:25:18.566Z,98434.44
2018-05-17T09:27:46.690Z,98440.66
2018-05-17T09:30:15.214Z,98436.70
2018-05-17T09:32:43.460Z,98445.50
2018-05-17T09:35:11.583Z,98440.13
2018-05-17T09:37:39.714Z,98440.42
2018-05-17T09:40:07.848Z,98438.42
2018-05-17T09:42:35.975Z,98443.41
2018-05-17T09:45:04.094Z,98445.98
2018-05-17T09:47:32.234Z,98447.80
2018-05-17T09:50:00.441Z,98437.92
2018-05-17T09:52:28.486Z,98442.29
2018-05-17T09:54:56.647Z,98446.70
2018-05-17T09:57:24.762Z,98441.67
2018-05-17T09:59:52.886Z,98446.84
2018-05-17T10:02:21.032Z,98437.50
2018-05-17T10:04:49.167Z,98440.98
2018-05-17T10:07:17.559Z,98441.56
2018-05-17T10:09:45.698Z,98443.19
2018-05-17T10:12:13.825Z,98444.44
2018-05-17T10:14:42.025Z,98442.46
2018-05-17T10:17:10.804Z,98442.41
2018-05-17T10:19:38.950Z,98440.63
2018-05-17T10:22:07.103Z,98443.67
2018-05-17T10:24:35.272Z,98439.98
2018-05-17T10:27:03.397Z,98438.77
2018-05-17T10:29:31.576Z,98447.48
2018-05-17T10:31:59.660Z,98444.92
2018-05-17T10:34:27.827Z,98447.09
2018-05-17T10:36:55.960Z,98448.67
2018-05-17T10:39:24.094Z,98449.28
2018-05-17T10:41:52.238Z,98454.77
2018-05-17T10:44:20.374Z,98457.41
2018-05-17T10:46:48.520Z,98453.91
2018-05-17T10:49:16.647Z,98457.11
2018-05-17T10:51:44.775Z,98466.78
2018-05-17T10:54:12.897Z,98463.70
2018-05-17T10:56:41.043Z,98465.36
2018-05-17T10:59:09.165Z,98466.88
2018-05-17T11:01:37.292Z,98464.16
2018-05-17T11:04:05.427Z,98469.41
2018-05-17T11:06:33.550Z,98471.36
2018-05-17T11:09:01.702Z,98469.71
2018-05-17T11:11:29.835Z,98470.05
2018-05-17T11:13:57.971Z,98470.66
2018-05-17T11:16:26.095Z,98478.29
2018-05-17T11:18:54.237Z,98476.34
2018-05-17T11:21:22.408Z,98473.71
2018-05-17T11:23:50.543Z,98474.14
2018-05-17T11:26:18.684Z,98476.97
2018-05-17T11:28:46.822Z,98481.22
2018-05-17T11:31:14.983Z,98480.58
2018-05-17T11:33:43.124Z,98486.66
2018-05-17T11:36:11.251Z,98484.48
2018-05-17T11:38:39.374Z,98488.65
2018-05-17T11:41:07.557Z,98490.80
2018-05-17T11:43:35.719Z,98490.30
2018-05-17T11:46:03.863Z,98488.27
2018-05-17T11:48:32.014Z,98488.06
2018-05-17T11:51:00.135Z,98488.88
2018-05-17T11:53:28.272Z,98487.55
2018-05-17T11:55:56.421Z,98483.17
2018-05-17T11:58:24.565Z,98486.56
2018-05-17T12:00:52.693Z,98484.89
2018-05-17T12:03:20.820Z,98480.70
2018-05-17T12:05:48.947Z,98486.42
2018-05-17T12:08:17.076Z,98486.63
2018-05-17T12:10:46.216Z,98488.52
2018-05-17T12:13:14.352Z,98483.34
2018-05-17T12:15:42.670Z,98494.00
2018-05-17T12:18:10.650Z,98488.55
2018-05-17T12:20:38.770Z,98491.08
2018-05-17T12:23:07.134Z,98492.13
2018-05-17T12:25:35.153Z,98494.34
2018-05-17T12:28:03.291Z,98491.08
2018-05-17T12:30:31.452Z,98497.92
2018-05-17T12:32:59.583Z,98496.30
2018-05-17T12:35:27.743Z,98499.43
2018-05-17T12:37:55.874Z,98497.64
2018-05-17T12:40:24.012Z,98496.44
2018-05-17T12:42:52.161Z,98498.28
2018-05-17T12:45:20.301Z,98497.27
2018-05-17T12:47:48.439Z,98501.34
2018-05-17T12:50:16.577Z,98500.47
2018-05-17T12:52:44.709Z,98500.13
2018-05-17T12:55:12.868Z,98500.27
2018-05-17T12:57:40.998Z,98491.55
2018-05-17T13:00:09.130Z,98494.18
2018-05-17T13:02:37.274Z,98494.65
2018-05-17T13:05:07.164Z,98488.96
2018-05-17T13:07:35.297Z,98491.85
2018-05-17T13:10:03.425Z,98494.38
2018-05-17T13:12:31.569Z,98496.88
2018-05-17T13:14:59.735Z,98500.07
2018-05-17T13:17:27.874Z,98493.44
2018-05-17T13:19:56.002Z,98492.86
2018-05-17T13:22:24.150Z,98498.42
2018-05-17T13:24:52.329Z,98492.05
2018-05-17T13:27:20.421Z,98491.68
2018-05-17T13:29:48.577Z,98490.22
2018-05-17T13:32:16.708Z,98493.70
2018-05-17T13:34:44.852Z,98489.89
2018-05-17T13:37:13.119Z,98490.38
2018-05-17T13:39:41.200Z,98492.77
2018-05-17T13:42:09.337Z,98495.25
2018-05-17T13:44:37.478Z,98494.18
2018-05-17T13:47:05.657Z,98485.70
2018-05-17T13:49:33.784Z,98482.06
2018-05-17T13:52:01.916Z,98483.94
2018-05-17T13:54:30.048Z,98484.17
2018-05-17T13:56:58.190Z,98486.87
2018-05-17T13:59:26.333Z,98482.56
2018-05-17T14:01:54.476Z,98481.75
2018-05-17T14:04:22.610Z,98480.14
2018-05-17T14:06:50.751Z,98475.05
2018-05-17T14:09:18.896Z,98479.66
2018-05-17T14:11:47.567Z,98474.75
2018-05-17T14:14:15.719Z,98483.57
2018-05-17T14:16:43.839Z,98479.57
2018-05-17T14:19:12.034Z,98473.68
2018-05-17T14:21:40.186Z,98480.81
2018-05-17T14:24:09.158Z,98479.44
2018-05-17T14:26:37.319Z,98480.24
2018-05-17T14:29:05.476Z,98482.59
2018-05-17T14:31:33.624Z,98486.80
2018-05-17T14:34:01.746Z,98481.42
2018-05-17T14:36:29.898Z,98475.91
2018-05-17T14:38:58.045Z,98476.00
2018-05-17T14:41:26.190Z,98477.59
2018-05-17T14:43:54.325Z,98478.56
2018-05-17T14:46:22.458Z,98472.41
2018-05-17T14:48:50.595Z,98475.91
2018-05-17T14:51:19.289Z,98474.72
2018-05-17T14:53:47.439Z,98473.78
2018-05-17T14:56:15.575Z,98472.20
2018-05-17T14:58:44.033Z,98477.95
2018-05-17T15:01:12.259Z,98469.55
2018-05-17T15:03:40.351Z,98475.16
2018-05-17T15:06:08.484Z,98470.55
2018-05-17T15:08:36.636Z,98467.77
2018-05-17T15:11:04.778Z,98469.00
2018-05-17T15:13:32.935Z,98468.72
2018-05-17T15:16:01.078Z,98467.09
2018-05-17T15:18:29.203Z,98467.48
2018-05-17T15:20:57.341Z,98464.00
2018-05-17T15:23:25.491Z,98469.14
2018-05-17T15:25:53.638Z,98462.30
2018-05-17T15:28:21.815Z,98471.16
2018-05-17T15:30:49.988Z,98473.67
2018-05-17T15:33:18.164Z,98474.03
2018-05-17T15:35:46.349Z,98469.66
2018-05-17T15:38:14.489Z,98470.70
2018-05-17T15:40:42.613Z,98474.08
2018-05-17T15:43:10.758Z,98471.92
2018-05-17T15:45:38.881Z,98470.08
2018-05-17T15:48:07.081Z,98472.83
2018-05-17T15:50:35.170Z,98472.46
2018-05-17T15:53:03.370Z,98473.48
2018-05-17T15:55:31.502Z,98472.05
2018-05-17T15:57:59.655Z,98474.28
2018-05-17T16:00:27.799Z,98467.64
2018-05-17T16:02:55.937Z,98471.72
2018-05-17T16:05:24.073Z,98473.30
2018-05-17T16:07:52.209Z,98470.88
2018-05-17T16:10:20.346Z,98466.64
2018-05-17T16:12:48.497Z,98471.45
2018-05-17T16:15:16.788Z,98467.91
2018-05-17T16:17:44.811Z,98469.16
2018-05-17T16:20:12.951Z,98471.67
2018-05-17T16:22:41.099Z,98473.51
2018-05-17T16:25:10.277Z,98478.73
2018-05-17T16:27:38.417Z,98479.67
2018-05-17T16:30:06.546Z,98479.75
2018-05-17T16:32:34.701Z,98480.20
2018-05-17T16:35:02.843Z,98478.34
2018-05-17T16:37:30.987Z,98482.16
2018-05-17T16:39:59.119Z,98480.54
2018-05-17T16:42:27.249Z,98488.09
2018-05-17T16:44:55.381Z,98480.18
2018-05-17T16:47:23.556Z,98472.30
2018-05-17T16:49:52.086Z,98479.03
2018-05-17T16:52:20.248Z,98478.73
2018-05-17T16:54:48.382Z,98480.38
2018-05-17T16:57:16.534Z,98480.52
2018-05-17T16:59:44.685Z,98486.86
2018-05-17T17:02:12.819Z,98480.80
2018-05-17T17:04:41.052Z,98484.64
2018-05-17T17:07:09.100Z,98483.02
2018-05-17T17:09:37.250Z,98487.77
2018-05-17T17:12:05.374Z,98492.02
2018-05-17T17:14:33.508Z,98487.88
2018-05-17T17:17:01.654Z,98491.69
2018-05-17T17:19:29.799Z,98487.81
2018-05-17T17:21:57.925Z,98491.05
2018-05-17T17:24:26.076Z,98490.95
2018-05-17T17:26:54.213Z,98492.70
2018-05-17T17:29:22.333Z,98491.66
2018-05-17T17:31:50.476Z,98485.36
2018-05-17T17:34:18.655Z,98487.92
2018-05-17T17:36:46.754Z,98487.81
2018-05-17T17:39:14.916Z,98490.68
2018-05-17T17:41:43.094Z,98487.34
2018-05-17T17:44:11.255Z,98488.29
2018-05-17T17:46:39.404Z,98488.56
2018-05-17T17:49:07.563Z,98486.67
2018-05-17T17:51:35.686Z,98491.66
2018-05-17T17:54:03.841Z,98492.06
2018-05-17T17:56:31.969Z,98492.86
2018-05-17T17:59:00.100Z,98491.25
2018-05-17T18:01:28.240Z,98495.69
2018-05-17T18:03:56.390Z,98493.70
2018-05-17T18:06:24.824Z,98495.62
2018-05-17T18:08:52.965Z,98499.83
2018-05-17T18:11:21.260Z,98504.30
2018-05-17T18:13:49.395Z,98506.62
2018-05-17T18:16:17.535Z,98505.44
2018-05-17T18:18:46.549Z,98503.95
2018-05-17T18:21:14.718Z,98503.15
2018-05-17T18:23:42.854Z,98509.20
2018-05-17T18:26:11.092Z,98509.91
2018-05-17T18:28:39.172Z,98507.21
2018-05-17T18:31:07.358Z,98507.37
2018-05-17T18:33:35.511Z,98519.76
2018-05-17T18:36:03.667Z,98518.41
2018-05-17T18:38:32.555Z,98527.63
2018-05-17T18:41:00.683Z,98529.23
2018-05-17T18:43:28.819Z,98532.89
2018-05-17T18:45:56.958Z,98533.76
2018-05-17T18:48:25.094Z,98539.97
2018-05-17T18:50:53.248Z,98548.88
2018-05-17T18:53:21.407Z,98555.48
2018-05-17T18:55:49.759Z,98561.16
2018-05-17T18:58:17.847Z,98553.77
2018-05-17T19:00:46.156Z,98553.25
2018-05-17T19:03:14.309Z,98559.23
2018-05-17T19:05:42.459Z,98562.65
2018-05-17T19:08:10.616Z,98569.26
2018-05-17T19:10:38.774Z,98568.05
2018-05-17T19:13:06.961Z,98575.47
2018-05-17T19:15:35.099Z,98578.42
2018-05-17T19:18:03.244Z,98580.44
2018-05-17T19:20:31.459Z,98588.93
2018-05-17T19:22:59.547Z,98588.55
2018-05-17T19:25:27.852Z,98591.91
2018-05-17T19:27:56.024Z,98598.11
2018-05-17T19:30:24.174Z,98598.25
2018-05-17T19:32:52.468Z,98598.25
2018-05-17T19:35:20.604Z,98594.10
2018-05-17T19:37:48.737Z,98596.81
2018-05-17T19:40:16.871Z,98603.12
2018-05-17T19:42:45.028Z,98601.67
2018-05-17T19:45:14.025Z,98600.70
2018-05-17T19:47:42.175Z,98597.64
2018-05-17T19:50:10.297Z,98604.48
2018-05-17T19:52:38.426Z,98599.78
2018-05-17T19:55:06.674Z,98605.16
2018-05-17T19:57:34.807Z,98602.87
2018-05-17T20:00:02.969Z,98600.47
2018-05-17T20:02:31.135Z,98603.83
2018-05-17T20:04:59.352Z,98608.97
2018-05-17T20:07:27.440Z,98613.00
2018-05-17T20:09:55.575Z,98609.22
2018-05-17T20:12:23.716Z,98610.18
2018-05-17T20:14:51.852Z,98609.53
2018-05-17T20:17:20.018Z,98615.17
2018-05-17T20:19:48.158Z,98614.25
2018-05-17T20:22:16.297Z,98621.50
2018-05-17T20:24:44.450Z,98616.42
2018-05-17T20:27:12.606Z,98625.16
2018-05-17T20:29:40.779Z,98628.27
2018-05-17T20:32:08.916Z,98632.47
2018-05-17T20:34:37.066Z,98629.09
2018-05-17T20:37:05.216Z,98637.98
2018-05-17T20:39:33.369Z,98635.72
2018-05-17T20:42:01.523Z,98635.31
2018-05-17T20:44:29.695Z,98634.79
2018-05-17T20:46:57.829Z,98636.68
2018-05-17T20:49:25.971Z,98636.70
2018-05-17T20:51:54.305Z,98636.95
2018-05-17T20:54:22.454Z,98634.66
2018-05-17T20:56:50.600Z,98630.64
2018-05-17T20:59:18.734Z,98639.65
2018-05-17T21:01:46.889Z,98634.02
2018-05-17T21:04:15.047Z,98642.48
2018-05-17T21:06:43.183Z,98641.41
2018-05-17T21:09:11.337Z,98632.95
2018-05-17T21:11:39.475Z,98637.64
2018-05-17T21:14:07.615Z,98633.89
2018-05-17T21:16:35.749Z,98639.38
2018-05-17T21:19:03.903Z,98650.28
2018-05-17T21:21:32.044Z,98648.63
2018-05-17T21:24:00.200Z,98651.31
2018-05-17T21:26:28.360Z,98650.38
2018-05-17T21:28:56.501Z,98652.38
2018-05-17T21:31:24.659Z,98656.45
2018-05-17T21:33:52.808Z,98655.61
2018-05-17T21:36:20.937Z,98655.48
2018-05-17T21:38:49.085Z,98654.81
2018-05-17T21:41:17.228Z,98657.64
2018-05-17T21:43:45.372Z,98652.65
2018-05-17T21:46:13.520Z,98652.67
2018-05-17T21:48:41.659Z,98650.78
2018-05-17T21:51:10.075Z,98650.11
2018-05-17T21:53:38.215Z,98645.31
2018-05-17T21:56:06.352Z,98647.03
2018-05-17T21:58:34.500Z,98640.74
2018-05-17T22:01:02.785Z,98649.97
2018-05-17T22:03:31.038Z,98652.53
2018-05-17T22:05:59.155Z,98646.49
2018-05-17T22:08:27.310Z,98641.09
2018-05-17T22:10:55.451Z,98637.91
2018-05-17T22:13:23.587Z,98633.49
2018-05-17T22:15:51.737Z,98633.92
2018-05-17T22:18:19.855Z,98633.37
2018-05-17T22:20:48.002Z,98645.34
2018-05-17T22:23:16.160Z,98644.28
2018-05-17T22:25:44.286Z,98648.32
2018-05-17T22:28:13.734Z,98648.58
2018-05-17T22:30:41.878Z,98645.37
2018-05-17T22:33:10.255Z,98636.38
2018-05-17T22:35:38.853Z,98648.59
2018-05-17T22:38:07.032Z,98644.16
2018-05-17T22:40:35.158Z,98640.95
2018-05-17T22:43:03.294Z,98644.41
2018-05-17T22:45:31.448Z,98641.42
2018-05-17T22:47:59.578Z,98640.65
2018-05-17T22:50:27.722Z,98636.58
2018-05-17T22:52:55.857Z,98635.78
2018-05-17T22:55:23.987Z,98634.06
2018-05-17T22:58:03.917Z,98641.33
2018-05-17T23:00:32.043Z,98637.19
2018-05-17T23:03:00.179Z,98638.36
2018-05-17T23:05:28.325Z,98639.72
2018-05-17T23:07:56.459Z,98635.83
2018-05-17T23:10:24.606Z,98634.91
2018-05-17T23:12:52.771Z,98642.03
2018-05-17T23:15:20.907Z,98634.91
2018-05-17T23:17:49.052Z,98629.55
2018-05-17T23:20:17.194Z,98639.06
2018-05-17T23:22:45.343Z,98640.00
2018-05-17T23:25:13.479Z,98643.36
2018-05-17T23:27:41.616Z,98640.41
2018-05-17T23:30:09.763Z,98641.34
2018-05-17T23:32:37.886Z,98639.36
2018-05-17T23:35:06.115Z,98640.58
2018-05-17T23:37:34.237Z,98638.82
2018-05-17T23:43:05.033Z,98639.23
2018-05-17T23:45:33.162Z,98641.22
2018-05-17T23:48:01.318Z,98637.19
2018-05-17T23:50:29.467Z,98635.58
2018-05-17T23:52:57.627Z,98648.05
2018-05-17T23:55:25.765Z,98635.58
2018-05-17T23:57:54.707Z,98628.86
